AV - LB | Pilotos de la V.A




 METAR AND TAF INFORMATION
METAR FOR LROP
ADDS - METARS form results

(1342 UTC 17 January 2021)
Data provider http://aviationweather.gov/metar/data/
 
METAR text: LROP 171330Z 29007KT CAVOK M03/M08 Q1016 R26L/09//95 NOSIG
Conditions at: LROP (BUCHAREST/OTOPEN, RO) observed 1330 UTC 17 January 2021
Temperature: -3.0°C (27°F)
Dewpoint: -8.0°C (18°F) [RH = 68%]
Pressure (altimeter): 30.00 inches Hg (1016.0 mb)
Winds: from the WNW (290 degrees) at 8 MPH (7 knots; 3.6 m/s)
Visibility: 6 or more miles (10+ km)
Ceiling: ceiling and visibility are OK
Clouds: unknown
Weather: no significant weather observed at this time

METAR text: LROP 171300Z 28007KT CAVOK M03/M08 Q1016 R26L/09//95 NOSIG
Conditions at: LROP (BUCHAREST/OTOPEN, RO) observed 1300 UTC 17 January 2021
Temperature: -3.0°C (27°F)
Dewpoint: -8.0°C (18°F) [RH = 68%]
Pressure (altimeter): 30.00 inches Hg (1016.0 mb)
Winds: from the W (280 degrees) at 8 MPH (7 knots; 3.6 m/s)
Visibility: 6 or more miles (10+ km)
Ceiling: ceiling and visibility are OK
Clouds: unknown
Weather: no significant weather observed at this time

Forecast for: LROP (BUCHAREST/OTOPEN, RO)
Text: TAF LROP 171100Z 1712/1812 28008KT 9999 SCT035
Forecast period: 1200 UTC 17 January 2021 to 1200 UTC 18 January 2021
Forecast type: FROM: standard forecast or significant change
Winds: from the W (280 degrees) at 9 MPH (8 knots; 4.1 m/s)
Visibility: 6 or more miles (10+ km)
Ceiling: at least 12,000 feet AGL
Clouds: scattered clouds at 3500 feet AGL
Weather: no significant weather forecast for this period

 AIRPORT MAP

 RUNWAY INFORMATION
Runway 08L Runway length 11484 ft Runway width 148 ft
Runway elevation 313 ft Runway displaced threshold 0 ft Runway heading 84
Runway 26R Runway length 11484 ft Runway width 148 ft
Runway elevation 303 ft Runway displaced threshold 0 ft Runway heading 264
Runway 08R Runway length 11484 ft Runway width 148 ft
Runway elevation 314 ft Runway displaced threshold 0 ft Runway heading 84
Runway 26L Runway length 11484 ft Runway width 148 ft
Runway elevation 303 ft Runway displaced threshold 0 ft Runway heading 264

 AIRPORT FREQUENCIES
Type APP Name BUCURESTI Frequency 118.25 MHZ
Type ATIS Name OTOPENI AT Frequency 118.5 MHZ
Type GND Name OTOPENI GN Frequency 121.7 MHZ
Type TWR Name OTOPENI TW Frequency 120.9 MHZ

 AIRPORT NEAR NAVIGATION AIDS
Type VOR-DME Name Floresti Frequency 112200 KHZ
Type NDB Name Otopeni Frequency 349 KHZ
Type NDB Name Otopeni Frequency 268 KHZ
Type NDB Name Otopeni Frequency 370 KHZ
Type VOR-DME Name Strejnic Frequency 113200 KHZ